sensor_id;sensor_type;location;lat;lon;timestamp;P1;durP1;ratioP1;P2;durP2;ratioP2
58898;SDS011;44680;48.342;7.856;2023-03-31T00:02:22;14.13;;;4.03;;
58898;SDS011;44680;48.342;7.856;2023-03-31T00:04:47;15.55;;;4.97;;
58898;SDS011;44680;48.342;7.856;2023-03-31T00:07:23;12.75;;;4.25;;
58898;SDS011;44680;48.342;7.856;2023-03-31T00:09:49;12.40;;;4.85;;
58898;SDS011;44680;48.342;7.856;2023-03-31T00:12:18;9.40;;;3.58;;
58898;SDS011;44680;48.342;7.856;2023-03-31T00:14:44;11.02;;;4.05;;
58898;SDS011;44680;48.342;7.856;2023-03-31T00:17:10;10.75;;;3.83;;
58898;SDS011;44680;48.342;7.856;2023-03-31T00:19:36;13.63;;;4.35;;
58898;SDS011;44680;48.342;7.856;2023-03-31T00:22:01;10.88;;;4.03;;
58898;SDS011;44680;48.342;7.856;2023-03-31T00:24:27;10.85;;;4.20;;
58898;SDS011;44680;48.342;7.856;2023-03-31T00:26:56;8.98;;;4.53;;
58898;SDS011;44680;48.342;7.856;2023-03-31T00:29:25;8.65;;;4.72;;
58898;SDS011;44680;48.342;7.856;2023-03-31T00:31:51;9.60;;;4.30;;
58898;SDS011;44680;48.342;7.856;2023-03-31T00:34:16;14.27;;;4.15;;
58898;SDS011;44680;48.342;7.856;2023-03-31T00:36:42;8.90;;;4.07;;
58898;SDS011;44680;48.342;7.856;2023-03-31T00:39:11;16.05;;;4.65;;
58898;SDS011;44680;48.342;7.856;2023-03-31T00:41:37;9.07;;;4.47;;
58898;SDS011;44680;48.342;7.856;2023-03-31T00:46:36;10.77;;;4.55;;
58898;SDS011;44680;48.342;7.856;2023-03-31T00:49:04;13.57;;;4.88;;
58898;SDS011;44680;48.342;7.856;2023-03-31T00:51:31;12.25;;;4.57;;
58898;SDS011;44680;48.342;7.856;2023-03-31T00:53:59;14.02;;;4.18;;
58898;SDS011;44680;48.342;7.856;2023-03-31T00:56:29;7.53;;;4.35;;
58898;SDS011;44680;48.342;7.856;2023-03-31T00:58:58;12.85;;;4.28;;
58898;SDS011;44680;48.342;7.856;2023-03-31T01:01:26;12.65;;;4.80;;
58898;SDS011;44680;48.342;7.856;2023-03-31T01:03:52;9.05;;;4.30;;
58898;SDS011;44680;48.342;7.856;2023-03-31T01:06:17;7.03;;;4.20;;
58898;SDS011;44680;48.342;7.856;2023-03-31T01:08:47;13.15;;;4.40;;
58898;SDS011;44680;48.342;7.856;2023-03-31T01:11:14;12.80;;;4.68;;
58898;SDS011;44680;48.342;7.856;2023-03-31T01:13:42;9.45;;;4.60;;
58898;SDS011;44680;48.342;7.856;2023-03-31T01:16:08;11.73;;;4.85;;
58898;SDS011;44680;48.342;7.856;2023-03-31T01:18:34;15.55;;;4.70;;
58898;SDS011;44680;48.342;7.856;2023-03-31T01:38:30;13.15;;;5.10;;
58898;SDS011;44680;48.342;7.856;2023-03-31T01:43:43;12.52;;;4.00;;
58898;SDS011;44680;48.342;7.856;2023-03-31T01:51:51;10.40;;;4.75;;
58898;SDS011;44680;48.342;7.856;2023-03-31T01:54:38;12.10;;;5.18;;
58898;SDS011;44680;48.342;7.856;2023-03-31T01:57:14;12.23;;;4.95;;
58898;SDS011;44680;48.342;7.856;2023-03-31T01:59:51;11.05;;;4.95;;
58898;SDS011;44680;48.342;7.856;2023-03-31T02:03:30;14.65;;;4.93;;
58898;SDS011;44680;48.342;7.856;2023-03-31T02:05:54;12.68;;;5.05;;
58898;SDS011;44680;48.342;7.856;2023-03-31T02:08:31;8.57;;;4.95;;
58898;SDS011;44680;48.342;7.856;2023-03-31T02:10:58;8.93;;;4.45;;
58898;SDS011;44680;48.342;7.856;2023-03-31T02:13:24;10.52;;;4.95;;
58898;SDS011;44680;48.342;7.856;2023-03-31T02:15:52;13.57;;;4.82;;
58898;SDS011;44680;48.342;7.856;2023-03-31T02:18:22;13.77;;;4.75;;
58898;SDS011;44680;48.342;7.856;2023-03-31T02:20:50;9.48;;;4.55;;
58898;SDS011;44680;48.342;7.856;2023-03-31T02:23:18;10.27;;;4.53;;
58898;SDS011;44680;48.342;7.856;2023-03-31T02:26:09;11.25;;;4.55;;
58898;SDS011;44680;48.342;7.856;2023-03-31T02:28:36;14.23;;;5.18;;
58898;SDS011;44680;48.342;7.856;2023-03-31T02:31:04;16.45;;;5.10;;
58898;SDS011;44680;48.342;7.856;2023-03-31T02:33:32;12.18;;;4.78;;
58898;SDS011;44680;48.342;7.856;2023-03-31T02:35:58;8.90;;;4.97;;
58898;SDS011;44680;48.342;7.856;2023-03-31T02:38:24;10.25;;;4.28;;
58898;SDS011;44680;48.342;7.856;2023-03-31T02:40:49;12.50;;;4.70;;
58898;SDS011;44680;48.342;7.856;2023-03-31T02:43:15;10.35;;;4.75;;
58898;SDS011;44680;48.342;7.856;2023-03-31T02:48:10;15.32;;;5.22;;
58898;SDS011;44680;48.342;7.856;2023-03-31T03:01:35;16.58;;;5.60;;
58898;SDS011;44680;48.342;7.856;2023-03-31T03:10:09;12.18;;;5.13;;
58898;SDS011;44680;48.342;7.856;2023-03-31T03:16:10;14.02;;;5.50;;
58898;SDS011;44680;48.342;7.856;2023-03-31T03:18:42;14.10;;;5.40;;
58898;SDS011;44680;48.342;7.856;2023-03-31T03:21:07;11.93;;;5.57;;
58898;SDS011;44680;48.342;7.856;2023-03-31T03:23:33;14.98;;;6.20;;
58898;SDS011;44680;48.342;7.856;2023-03-31T03:25:58;13.15;;;5.82;;
58898;SDS011;44680;48.342;7.856;2023-03-31T03:28:23;13.40;;;6.25;;
58898;SDS011;44680;48.342;7.856;2023-03-31T03:30:49;14.65;;;6.07;;
58898;SDS011;44680;48.342;7.856;2023-03-31T03:33:14;12.18;;;5.43;;
58898;SDS011;44680;48.342;7.856;2023-03-31T03:35:40;17.25;;;5.93;;
58898;SDS011;44680;48.342;7.856;2023-03-31T03:38:06;10.57;;;5.70;;
58898;SDS011;44680;48.342;7.856;2023-03-31T03:40:31;14.98;;;5.93;;
58898;SDS011;44680;48.342;7.856;2023-03-31T03:42:57;12.77;;;5.18;;
58898;SDS011;44680;48.342;7.856;2023-03-31T03:45:22;18.58;;;6.13;;
58898;SDS011;44680;48.342;7.856;2023-03-31T03:47:47;17.33;;;6.35;;
58898;SDS011;44680;48.342;7.856;2023-03-31T03:50:12;13.00;;;6.00;;
58898;SDS011;44680;48.342;7.856;2023-03-31T03:52:38;9.13;;;5.13;;
58898;SDS011;44680;48.342;7.856;2023-03-31T03:55:03;15.38;;;5.53;;
58898;SDS011;44680;48.342;7.856;2023-03-31T03:57:29;19.55;;;5.85;;
58898;SDS011;44680;48.342;7.856;2023-03-31T03:59:55;10.63;;;5.45;;
58898;SDS011;44680;48.342;7.856;2023-03-31T04:02:20;9.32;;;5.72;;
58898;SDS011;44680;48.342;7.856;2023-03-31T04:04:45;13.93;;;5.95;;
58898;SDS011;44680;48.342;7.856;2023-03-31T04:07:11;13.30;;;5.30;;
58898;SDS011;44680;48.342;7.856;2023-03-31T04:09:37;15.63;;;5.68;;
58898;SDS011;44680;48.342;7.856;2023-03-31T04:12:02;19.27;;;5.78;;
58898;SDS011;44680;48.342;7.856;2023-03-31T04:14:28;14.68;;;6.00;;
58898;SDS011;44680;48.342;7.856;2023-03-31T04:16:53;13.88;;;6.60;;
58898;SDS011;44680;48.342;7.856;2023-03-31T04:19:20;11.18;;;6.25;;
58898;SDS011;44680;48.342;7.856;2023-03-31T04:21:49;20.30;;;9.23;;
58898;SDS011;44680;48.342;7.856;2023-03-31T04:24:22;17.85;;;7.30;;
58898;SDS011;44680;48.342;7.856;2023-03-31T04:26:55;16.17;;;6.45;;
58898;SDS011;44680;48.342;7.856;2023-03-31T04:29:20;17.75;;;6.25;;
58898;SDS011;44680;48.342;7.856;2023-03-31T04:31:46;18.33;;;6.35;;
58898;SDS011;44680;48.342;7.856;2023-03-31T04:34:13;16.52;;;6.68;;
58898;SDS011;44680;48.342;7.856;2023-03-31T04:36:39;16.80;;;7.10;;
58898;SDS011;44680;48.342;7.856;2023-03-31T04:39:06;13.93;;;6.40;;
58898;SDS011;44680;48.342;7.856;2023-03-31T04:41:35;13.30;;;5.93;;
58898;SDS011;44680;48.342;7.856;2023-03-31T04:44:00;11.57;;;5.90;;
58898;SDS011;44680;48.342;7.856;2023-03-31T04:46:26;14.85;;;6.00;;
58898;SDS011;44680;48.342;7.856;2023-03-31T04:48:51;14.60;;;6.70;;
58898;SDS011;44680;48.342;7.856;2023-03-31T04:51:17;12.65;;;6.25;;
58898;SDS011;44680;48.342;7.856;2023-03-31T04:53:44;14.90;;;6.80;;
58898;SDS011;44680;48.342;7.856;2023-03-31T04:56:09;15.23;;;6.75;;
58898;SDS011;44680;48.342;7.856;2023-03-31T04:58:35;14.60;;;6.80;;
58898;SDS011;44680;48.342;7.856;2023-03-31T05:01:00;14.40;;;6.70;;
58898;SDS011;44680;48.342;7.856;2023-03-31T05:03:26;19.58;;;7.65;;
58898;SDS011;44680;48.342;7.856;2023-03-31T05:05:51;17.17;;;7.10;;
58898;SDS011;44680;48.342;7.856;2023-03-31T05:08:16;14.65;;;7.25;;
58898;SDS011;44680;48.342;7.856;2023-03-31T05:10:42;16.42;;;7.05;;
58898;SDS011;44680;48.342;7.856;2023-03-31T05:13:10;16.38;;;6.38;;
58898;SDS011;44680;48.342;7.856;2023-03-31T05:15:37;12.80;;;6.40;;
58898;SDS011;44680;48.342;7.856;2023-03-31T05:18:03;15.73;;;6.53;;
58898;SDS011;44680;48.342;7.856;2023-03-31T05:20:28;19.30;;;7.50;;
58898;SDS011;44680;48.342;7.856;2023-03-31T05:22:53;15.88;;;7.35;;
58898;SDS011;44680;48.342;7.856;2023-03-31T05:25:19;19.23;;;7.55;;
58898;SDS011;44680;48.342;7.856;2023-03-31T05:27:45;16.25;;;7.80;;
58898;SDS011;44680;48.342;7.856;2023-03-31T05:30:11;22.20;;;8.32;;
58898;SDS011;44680;48.342;7.856;2023-03-31T05:32:37;19.75;;;8.90;;
58898;SDS011;44680;48.342;7.856;2023-03-31T05:35:02;19.67;;;8.45;;
58898;SDS011;44680;48.342;7.856;2023-03-31T05:37:28;16.17;;;7.70;;
58898;SDS011;44680;48.342;7.856;2023-03-31T05:39:53;18.10;;;7.07;;
58898;SDS011;44680;48.342;7.856;2023-03-31T05:42:19;11.90;;;6.57;;
58898;SDS011;44680;48.342;7.856;2023-03-31T05:44:45;16.27;;;7.20;;
58898;SDS011;44680;48.342;7.856;2023-03-31T05:47:10;17.58;;;7.28;;
58898;SDS011;44680;48.342;7.856;2023-03-31T05:49:36;13.88;;;7.30;;
58898;SDS011;44680;48.342;7.856;2023-03-31T05:52:02;13.75;;;6.95;;
58898;SDS011;44680;48.342;7.856;2023-03-31T05:54:28;17.67;;;7.63;;
58898;SDS011;44680;48.342;7.856;2023-03-31T05:56:53;18.40;;;7.20;;
58898;SDS011;44680;48.342;7.856;2023-03-31T05:59:18;20.42;;;7.15;;
58898;SDS011;44680;48.342;7.856;2023-03-31T06:01:44;20.02;;;7.65;;
58898;SDS011;44680;48.342;7.856;2023-03-31T06:04:09;19.27;;;7.50;;
58898;SDS011;44680;48.342;7.856;2023-03-31T06:06:35;18.67;;;7.30;;
58898;SDS011;44680;48.342;7.856;2023-03-31T06:09:02;11.85;;;6.28;;
58898;SDS011;44680;48.342;7.856;2023-03-31T06:11:28;15.55;;;7.07;;
58898;SDS011;44680;48.342;7.856;2023-03-31T06:13:54;16.52;;;7.40;;
58898;SDS011;44680;48.342;7.856;2023-03-31T06:16:19;19.65;;;7.65;;
58898;SDS011;44680;48.342;7.856;2023-03-31T06:18:45;18.77;;;7.78;;
58898;SDS011;44680;48.342;7.856;2023-03-31T06:21:11;27.58;;;8.32;;
58898;SDS011;44680;48.342;7.856;2023-03-31T06:23:37;17.42;;;8.25;;
58898;SDS011;44680;48.342;7.856;2023-03-31T06:26:04;16.40;;;7.55;;
58898;SDS011;44680;48.342;7.856;2023-03-31T06:28:32;17.95;;;6.93;;
58898;SDS011;44680;48.342;7.856;2023-03-31T06:31:01;13.38;;;6.32;;
58898;SDS011;44680;48.342;7.856;2023-03-31T06:33:32;14.88;;;6.50;;
58898;SDS011;44680;48.342;7.856;2023-03-31T06:35:57;13.15;;;5.97;;
58898;SDS011;44680;48.342;7.856;2023-03-31T06:38:25;14.38;;;7.05;;
58898;SDS011;44680;48.342;7.856;2023-03-31T06:40:51;15.93;;;7.15;;
58898;SDS011;44680;48.342;7.856;2023-03-31T06:43:16;15.30;;;7.75;;
58898;SDS011;44680;48.342;7.856;2023-03-31T06:45:42;19.70;;;7.72;;
58898;SDS011;44680;48.342;7.856;2023-03-31T06:48:07;15.60;;;7.35;;
58898;SDS011;44680;48.342;7.856;2023-03-31T06:50:32;16.40;;;7.85;;
58898;SDS011;44680;48.342;7.856;2023-03-31T06:52:58;13.18;;;6.85;;
58898;SDS011;44680;48.342;7.856;2023-03-31T06:55:24;11.57;;;6.25;;
58898;SDS011;44680;48.342;7.856;2023-03-31T06:57:49;14.00;;;6.38;;
58898;SDS011;44680;48.342;7.856;2023-03-31T07:00:15;12.98;;;6.10;;
58898;SDS011;44680;48.342;7.856;2023-03-31T07:02:40;10.52;;;5.30;;
58898;SDS011;44680;48.342;7.856;2023-03-31T07:05:07;13.55;;;5.70;;
58898;SDS011;44680;48.342;7.856;2023-03-31T07:07:32;12.75;;;5.32;;
58898;SDS011;44680;48.342;7.856;2023-03-31T07:09:59;8.68;;;3.97;;
58898;SDS011;44680;48.342;7.856;2023-03-31T07:12:24;8.98;;;3.63;;
58898;SDS011;44680;48.342;7.856;2023-03-31T07:14:50;6.65;;;3.45;;
58898;SDS011;44680;48.342;7.856;2023-03-31T07:17:15;6.50;;;3.40;;
58898;SDS011;44680;48.342;7.856;2023-03-31T07:19:41;5.22;;;3.30;;
58898;SDS011;44680;48.342;7.856;2023-03-31T07:22:07;5.97;;;2.83;;
58898;SDS011;44680;48.342;7.856;2023-03-31T07:24:34;4.57;;;2.90;;
58898;SDS011;44680;48.342;7.856;2023-03-31T07:26:59;6.05;;;2.83;;
58898;SDS011;44680;48.342;7.856;2023-03-31T07:29:24;4.72;;;2.75;;
58898;SDS011;44680;48.342;7.856;2023-03-31T07:31:50;3.05;;;2.78;;
58898;SDS011;44680;48.342;7.856;2023-03-31T07:34:16;3.47;;;2.80;;
58898;SDS011;44680;48.342;7.856;2023-03-31T07:36:41;5.03;;;2.63;;
58898;SDS011;44680;48.342;7.856;2023-03-31T07:39:06;16.27;;;3.95;;
58898;SDS011;44680;48.342;7.856;2023-03-31T07:41:32;6.93;;;2.90;;
58898;SDS011;44680;48.342;7.856;2023-03-31T07:43:57;4.57;;;2.58;;
58898;SDS011;44680;48.342;7.856;2023-03-31T07:46:24;5.28;;;2.53;;
58898;SDS011;44680;48.342;7.856;2023-03-31T07:48:51;8.25;;;2.90;;
58898;SDS011;44680;48.342;7.856;2023-03-31T07:51:18;4.18;;;2.97;;
58898;SDS011;44680;48.342;7.856;2023-03-31T07:53:46;5.68;;;2.63;;
58898;SDS011;44680;48.342;7.856;2023-03-31T07:56:13;4.57;;;2.60;;
58898;SDS011;44680;48.342;7.856;2023-03-31T07:58:41;3.50;;;2.70;;
58898;SDS011;44680;48.342;7.856;2023-03-31T08:01:06;5.63;;;2.25;;
58898;SDS011;44680;48.342;7.856;2023-03-31T08:03:32;5.63;;;2.95;;
58898;SDS011;44680;48.342;7.856;2023-03-31T08:05:58;4.90;;;2.42;;
58898;SDS011;44680;48.342;7.856;2023-03-31T08:08:23;5.28;;;2.42;;
58898;SDS011;44680;48.342;7.856;2023-03-31T08:10:49;9.02;;;2.53;;
58898;SDS011;44680;48.342;7.856;2023-03-31T08:13:14;8.38;;;2.72;;
58898;SDS011;44680;48.342;7.856;2023-03-31T08:15:40;10.57;;;2.85;;
58898;SDS011;44680;48.342;7.856;2023-03-31T08:18:05;7.13;;;2.75;;
58898;SDS011;44680;48.342;7.856;2023-03-31T08:20:30;5.35;;;2.78;;
58898;SDS011;44680;48.342;7.856;2023-03-31T08:22:56;10.57;;;3.10;;
58898;SDS011;44680;48.342;7.856;2023-03-31T08:25:21;5.50;;;2.70;;
58898;SDS011;44680;48.342;7.856;2023-03-31T08:27:47;7.43;;;2.95;;
58898;SDS011;44680;48.342;7.856;2023-03-31T08:30:15;6.15;;;3.08;;
58898;SDS011;44680;48.342;7.856;2023-03-31T08:32:42;5.72;;;3.05;;
58898;SDS011;44680;48.342;7.856;2023-03-31T08:35:07;5.45;;;3.00;;
58898;SDS011;44680;48.342;7.856;2023-03-31T08:37:33;5.40;;;2.47;;
58898;SDS011;44680;48.342;7.856;2023-03-31T08:39:59;6.93;;;2.90;;
58898;SDS011;44680;48.342;7.856;2023-03-31T08:42:45;6.82;;;2.65;;
58898;SDS011;44680;48.342;7.856;2023-03-31T08:45:21;6.18;;;2.90;;
58898;SDS011;44680;48.342;7.856;2023-03-31T08:47:49;8.68;;;3.00;;
58898;SDS011;44680;48.342;7.856;2023-03-31T08:50:19;3.47;;;2.63;;
58898;SDS011;44680;48.342;7.856;2023-03-31T08:52:49;9.93;;;3.47;;
58898;SDS011;44680;48.342;7.856;2023-03-31T08:55:22;7.05;;;3.10;;
58898;SDS011;44680;48.342;7.856;2023-03-31T09:00:25;12.88;;;3.50;;
58898;SDS011;44680;48.342;7.856;2023-03-31T09:03:01;9.38;;;3.05;;
58898;SDS011;44680;48.342;7.856;2023-03-31T09:05:34;8.07;;;2.97;;
58898;SDS011;44680;48.342;7.856;2023-03-31T09:13:17;13.18;;;3.25;;
58898;SDS011;44680;48.342;7.856;2023-03-31T09:16:13;15.95;;;3.60;;
58898;SDS011;44680;48.342;7.856;2023-03-31T09:18:40;6.10;;;2.80;;
58898;SDS011;44680;48.342;7.856;2023-03-31T09:26:50;14.10;;;3.25;;
58898;SDS011;44680;48.342;7.856;2023-03-31T09:29:21;7.95;;;2.85;;
58898;SDS011;44680;48.342;7.856;2023-03-31T09:31:53;10.48;;;3.08;;
58898;SDS011;44680;48.342;7.856;2023-03-31T09:34:27;8.55;;;3.03;;
58898;SDS011;44680;48.342;7.856;2023-03-31T09:36:55;12.50;;;3.00;;
58898;SDS011;44680;48.342;7.856;2023-03-31T09:39:20;12.35;;;3.20;;
58898;SDS011;44680;48.342;7.856;2023-03-31T09:41:48;14.75;;;3.22;;
58898;SDS011;44680;48.342;7.856;2023-03-31T09:44:20;8.52;;;3.15;;
58898;SDS011;44680;48.342;7.856;2023-03-31T09:46:47;8.32;;;3.10;;
58898;SDS011;44680;48.342;7.856;2023-03-31T09:49:14;10.02;;;2.72;;
58898;SDS011;44680;48.342;7.856;2023-03-31T09:51:47;11.13;;;2.80;;
58898;SDS011;44680;48.342;7.856;2023-03-31T09:54:26;14.95;;;2.83;;
58898;SDS011;44680;48.342;7.856;2023-03-31T09:56:55;9.02;;;2.60;;
58898;SDS011;44680;48.342;7.856;2023-03-31T09:59:22;9.77;;;2.70;;
58898;SDS011;44680;48.342;7.856;2023-03-31T10:01:56;11.52;;;2.75;;
58898;SDS011;44680;48.342;7.856;2023-03-31T10:04:24;6.05;;;2.60;;
58898;SDS011;44680;48.342;7.856;2023-03-31T10:06:50;10.52;;;2.80;;
58898;SDS011;44680;48.342;7.856;2023-03-31T10:09:19;8.98;;;3.08;;
58898;SDS011;44680;48.342;7.856;2023-03-31T10:11:51;6.63;;;2.35;;
58898;SDS011;44680;48.342;7.856;2023-03-31T10:14:18;8.13;;;2.92;;
58898;SDS011;44680;48.342;7.856;2023-03-31T10:16:54;5.45;;;2.58;;
58898;SDS011;44680;48.342;7.856;2023-03-31T10:19:21;5.88;;;2.20;;
58898;SDS011;44680;48.342;7.856;2023-03-31T10:21:48;5.63;;;2.25;;
58898;SDS011;44680;48.342;7.856;2023-03-31T10:24:20;11.40;;;2.75;;
58898;SDS011;44680;48.342;7.856;2023-03-31T10:26:47;5.68;;;2.08;;
58898;SDS011;44680;48.342;7.856;2023-03-31T10:29:14;9.48;;;2.15;;
58898;SDS011;44680;48.342;7.856;2023-03-31T10:31:46;6.25;;;2.45;;
58898;SDS011;44680;48.342;7.856;2023-03-31T10:34:11;3.55;;;1.98;;
58898;SDS011;44680;48.342;7.856;2023-03-31T10:36:43;11.70;;;3.42;;
58898;SDS011;44680;48.342;7.856;2023-03-31T10:39:11;5.05;;;2.30;;
58898;SDS011;44680;48.342;7.856;2023-03-31T10:41:39;6.18;;;2.50;;
58898;SDS011;44680;48.342;7.856;2023-03-31T10:44:05;3.20;;;1.98;;
58898;SDS011;44680;48.342;7.856;2023-03-31T10:51:48;7.32;;;2.50;;
58898;SDS011;44680;48.342;7.856;2023-03-31T10:54:17;7.07;;;3.03;;
58898;SDS011;44680;48.342;7.856;2023-03-31T10:56:46;5.60;;;3.13;;
58898;SDS011;44680;48.342;7.856;2023-03-31T10:59:16;6.18;;;3.83;;
58898;SDS011;44680;48.342;7.856;2023-03-31T11:09:33;4.10;;;2.25;;
58898;SDS011;44680;48.342;7.856;2023-03-31T11:12:08;12.75;;;6.00;;
58898;SDS011;44680;48.342;7.856;2023-03-31T11:25:43;2.95;;;2.40;;
58898;SDS011;44680;48.342;7.856;2023-03-31T11:38:58;10.60;;;3.60;;
58898;SDS011;44680;48.342;7.856;2023-03-31T11:44:02;4.85;;;2.65;;
58898;SDS011;44680;48.342;7.856;2023-03-31T11:49:10;5.97;;;3.90;;
58898;SDS011;44680;48.342;7.856;2023-03-31T11:51:54;6.97;;;3.00;;
58898;SDS011;44680;48.342;7.856;2023-03-31T11:54:32;6.15;;;2.40;;
58898;SDS011;44680;48.342;7.856;2023-03-31T11:57:00;4.75;;;3.10;;
58898;SDS011;44680;48.342;7.856;2023-03-31T11:59:27;7.70;;;3.63;;
58898;SDS011;44680;48.342;7.856;2023-03-31T12:04:48;4.18;;;1.83;;
58898;SDS011;44680;48.342;7.856;2023-03-31T12:10:41;3.45;;;2.65;;
58898;SDS011;44680;48.342;7.856;2023-03-31T12:12:52;3.97;;;2.20;;
58898;SDS011;44680;48.342;7.856;2023-03-31T12:15:28;6.05;;;2.22;;
58898;SDS011;44680;48.342;7.856;2023-03-31T12:17:58;2.55;;;1.90;;
58898;SDS011;44680;48.342;7.856;2023-03-31T12:20:29;5.22;;;2.05;;
58898;SDS011;44680;48.342;7.856;2023-03-31T12:22:57;4.78;;;2.25;;
58898;SDS011;44680;48.342;7.856;2023-03-31T12:25:24;8.43;;;2.60;;
58898;SDS011;44680;48.342;7.856;2023-03-31T12:28:03;3.58;;;2.45;;
58898;SDS011;44680;48.342;7.856;2023-03-31T12:30:32;4.18;;;2.33;;
58898;SDS011;44680;48.342;7.856;2023-03-31T12:41:23;11.38;;;3.25;;
58898;SDS011;44680;48.342;7.856;2023-03-31T12:46:50;7.03;;;2.70;;
58898;SDS011;44680;48.342;7.856;2023-03-31T12:55:24;5.00;;;3.00;;
58898;SDS011;44680;48.342;7.856;2023-03-31T12:57:52;2.28;;;1.95;;
58898;SDS011;44680;48.342;7.856;2023-03-31T13:01:00;3.30;;;2.20;;
58898;SDS011;44680;48.342;7.856;2023-03-31T13:03:45;3.08;;;2.10;;
58898;SDS011;44680;48.342;7.856;2023-03-31T13:06:57;2.80;;;1.88;;
58898;SDS011;44680;48.342;7.856;2023-03-31T13:08:58;3.13;;;2.30;;
58898;SDS011;44680;48.342;7.856;2023-03-31T13:13:58;4.00;;;2.70;;
58898;SDS011;44680;48.342;7.856;2023-03-31T13:16:26;4.40;;;2.00;;
58898;SDS011;44680;48.342;7.856;2023-03-31T13:18:52;5.30;;;2.10;;
58898;SDS011;44680;48.342;7.856;2023-03-31T13:21:17;4.35;;;2.50;;
58898;SDS011;44680;48.342;7.856;2023-03-31T13:23:43;6.65;;;2.83;;
58898;SDS011;44680;48.342;7.856;2023-03-31T13:34:26;5.47;;;2.60;;
58898;SDS011;44680;48.342;7.856;2023-03-31T13:40:05;8.88;;;3.22;;
58898;SDS011;44680;48.342;7.856;2023-03-31T13:47:58;5.05;;;2.33;;
58898;SDS011;44680;48.342;7.856;2023-03-31T13:50:45;4.22;;;2.88;;
58898;SDS011;44680;48.342;7.856;2023-03-31T13:53:38;3.55;;;1.98;;
58898;SDS011;44680;48.342;7.856;2023-03-31T14:06:58;2.42;;;1.67;;
58898;SDS011;44680;48.342;7.856;2023-03-31T14:09:28;8.50;;;2.20;;
58898;SDS011;44680;48.342;7.856;2023-03-31T14:11:59;6.15;;;2.10;;
58898;SDS011;44680;48.342;7.856;2023-03-31T14:14:25;5.15;;;2.10;;
58898;SDS011;44680;48.342;7.856;2023-03-31T14:16:55;4.35;;;2.17;;
58898;SDS011;44680;48.342;7.856;2023-03-31T14:24:51;6.50;;;2.20;;
58898;SDS011;44680;48.342;7.856;2023-03-31T14:33:21;5.03;;;2.30;;
58898;SDS011;44680;48.342;7.856;2023-03-31T14:36:39;2.10;;;1.98;;
58898;SDS011;44680;48.342;7.856;2023-03-31T14:38:54;3.60;;;2.10;;
58898;SDS011;44680;48.342;7.856;2023-03-31T14:41:25;4.68;;;2.42;;
58898;SDS011;44680;48.342;7.856;2023-03-31T14:43:53;8.70;;;3.35;;
58898;SDS011;44680;48.342;7.856;2023-03-31T14:46:20;5.43;;;1.92;;
58898;SDS011;44680;48.342;7.856;2023-03-31T14:48:46;5.85;;;2.58;;
58898;SDS011;44680;48.342;7.856;2023-03-31T14:51:13;3.38;;;1.90;;
58898;SDS011;44680;48.342;7.856;2023-03-31T14:53:40;7.18;;;2.30;;
58898;SDS011;44680;48.342;7.856;2023-03-31T14:56:08;5.38;;;2.30;;
58898;SDS011;44680;48.342;7.856;2023-03-31T14:58:43;4.45;;;1.80;;
58898;SDS011;44680;48.342;7.856;2023-03-31T15:01:13;4.57;;;1.98;;
58898;SDS011;44680;48.342;7.856;2023-03-31T15:03:41;4.22;;;2.63;;
58898;SDS011;44680;48.342;7.856;2023-03-31T15:06:07;2.85;;;1.95;;
58898;SDS011;44680;48.342;7.856;2023-03-31T15:08:32;3.38;;;2.00;;
58898;SDS011;44680;48.342;7.856;2023-03-31T15:10:59;5.75;;;2.50;;
58898;SDS011;44680;48.342;7.856;2023-03-31T15:13:31;4.75;;;2.40;;
58898;SDS011;44680;48.342;7.856;2023-03-31T15:15:58;5.55;;;3.30;;
58898;SDS011;44680;48.342;7.856;2023-03-31T15:18:25;5.90;;;3.25;;
58898;SDS011;44680;48.342;7.856;2023-03-31T15:20:51;5.32;;;2.60;;
58898;SDS011;44680;48.342;7.856;2023-03-31T15:23:18;6.25;;;3.10;;
58898;SDS011;44680;48.342;7.856;2023-03-31T15:25:48;3.78;;;2.28;;
58898;SDS011;44680;48.342;7.856;2023-03-31T15:28:15;6.38;;;2.38;;
58898;SDS011;44680;48.342;7.856;2023-03-31T15:30:42;6.82;;;3.05;;
58898;SDS011;44680;48.342;7.856;2023-03-31T15:33:14;6.40;;;3.00;;
58898;SDS011;44680;48.342;7.856;2023-03-31T15:35:42;9.07;;;3.00;;
58898;SDS011;44680;48.342;7.856;2023-03-31T15:38:08;4.53;;;2.63;;
58898;SDS011;44680;48.342;7.856;2023-03-31T15:45:36;7.75;;;3.08;;
58898;SDS011;44680;48.342;7.856;2023-03-31T15:48:03;7.72;;;2.53;;
58898;SDS011;44680;48.342;7.856;2023-03-31T15:50:29;6.35;;;2.90;;
58898;SDS011;44680;48.342;7.856;2023-03-31T15:52:56;5.93;;;4.00;;
58898;SDS011;44680;48.342;7.856;2023-03-31T15:57:47;6.20;;;3.53;;
58898;SDS011;44680;48.342;7.856;2023-03-31T16:02:57;5.45;;;2.53;;
58898;SDS011;44680;48.342;7.856;2023-03-31T16:07:53;6.70;;;2.53;;
58898;SDS011;44680;48.342;7.856;2023-03-31T16:10:20;7.45;;;3.22;;
58898;SDS011;44680;48.342;7.856;2023-03-31T16:12:48;5.40;;;2.50;;
58898;SDS011;44680;48.342;7.856;2023-03-31T16:15:33;5.63;;;3.35;;
58898;SDS011;44680;48.342;7.856;2023-03-31T16:18:11;7.90;;;2.83;;
58898;SDS011;44680;48.342;7.856;2023-03-31T16:20:41;7.55;;;3.15;;
58898;SDS011;44680;48.342;7.856;2023-03-31T16:23:11;9.25;;;4.30;;
58898;SDS011;44680;48.342;7.856;2023-03-31T16:25:38;8.38;;;3.35;;
58898;SDS011;44680;48.342;7.856;2023-03-31T16:28:04;6.57;;;2.55;;
58898;SDS011;44680;48.342;7.856;2023-03-31T16:30:37;6.82;;;2.83;;
58898;SDS011;44680;48.342;7.856;2023-03-31T16:33:07;6.65;;;2.55;;
58898;SDS011;44680;48.342;7.856;2023-03-31T16:35:38;4.73;;;2.60;;
58898;SDS011;44680;48.342;7.856;2023-03-31T16:38:08;4.88;;;2.72;;
58898;SDS011;44680;48.342;7.856;2023-03-31T16:40:37;12.15;;;3.30;;
58898;SDS011;44680;48.342;7.856;2023-03-31T16:45:54;7.50;;;2.25;;
58898;SDS011;44680;48.342;7.856;2023-03-31T16:48:21;8.40;;;3.10;;
58898;SDS011;44680;48.342;7.856;2023-03-31T16:50:48;6.93;;;2.80;;
58898;SDS011;44680;48.342;7.856;2023-03-31T16:53:17;13.20;;;3.50;;
58898;SDS011;44680;48.342;7.856;2023-03-31T16:55:43;5.80;;;3.08;;
58898;SDS011;44680;48.342;7.856;2023-03-31T16:58:09;8.70;;;2.70;;
58898;SDS011;44680;48.342;7.856;2023-03-31T17:00:35;4.50;;;2.47;;
58898;SDS011;44680;48.342;7.856;2023-03-31T17:03:00;10.10;;;3.30;;
58898;SDS011;44680;48.342;7.856;2023-03-31T17:05:27;5.35;;;2.95;;
58898;SDS011;44680;48.342;7.856;2023-03-31T17:07:53;6.20;;;2.90;;
58898;SDS011;44680;48.342;7.856;2023-03-31T17:10:18;12.43;;;5.43;;
58898;SDS011;44680;48.342;7.856;2023-03-31T17:12:44;6.95;;;3.60;;
58898;SDS011;44680;48.342;7.856;2023-03-31T17:15:09;8.15;;;4.25;;
58898;SDS011;44680;48.342;7.856;2023-03-31T17:17:35;5.53;;;3.25;;
58898;SDS011;44680;48.342;7.856;2023-03-31T17:20:00;9.48;;;3.42;;
58898;SDS011;44680;48.342;7.856;2023-03-31T17:22:26;6.80;;;3.40;;
58898;SDS011;44680;48.342;7.856;2023-03-31T17:24:52;9.88;;;3.15;;
58898;SDS011;44680;48.342;7.856;2023-03-31T17:27:22;6.28;;;2.92;;
58898;SDS011;44680;48.342;7.856;2023-03-31T17:29:47;11.80;;;4.00;;
58898;SDS011;44680;48.342;7.856;2023-03-31T17:32:12;13.00;;;3.58;;
58898;SDS011;44680;48.342;7.856;2023-03-31T17:34:39;6.05;;;3.75;;
58898;SDS011;44680;48.342;7.856;2023-03-31T17:37:04;9.25;;;3.63;;
58898;SDS011;44680;48.342;7.856;2023-03-31T17:39:30;7.85;;;3.83;;
58898;SDS011;44680;48.342;7.856;2023-03-31T17:41:56;6.80;;;3.30;;
58898;SDS011;44680;48.342;7.856;2023-03-31T17:44:21;5.30;;;3.00;;
58898;SDS011;44680;48.342;7.856;2023-03-31T17:46:46;6.57;;;2.92;;
58898;SDS011;44680;48.342;7.856;2023-03-31T17:49:12;9.50;;;3.08;;
58898;SDS011;44680;48.342;7.856;2023-03-31T17:51:37;6.78;;;3.20;;
58898;SDS011;44680;48.342;7.856;2023-03-31T17:54:03;3.35;;;2.40;;